createdAt,value
2019-02-15T00:01:51.458Z,15.55
2019-02-15T00:04:20.160Z,15.15
2019-02-15T00:06:48.360Z,12.40
2019-02-15T00:09:16.560Z,12.58
2019-02-15T00:11:45.020Z,12.20
2019-02-15T00:14:13.577Z,13.30
2019-02-15T00:16:42.304Z,13.10
2019-02-15T00:19:16.330Z,11.88
2019-02-15T00:21:49.873Z,13.40
2019-02-15T00:24:17.995Z,12.03
2019-02-15T00:26:46.035Z,10.98
2019-02-15T00:29:14.151Z,12.33
2019-02-15T00:31:42.469Z,15.83
2019-02-15T00:34:11.408Z,11.78
2019-02-15T00:36:39.493Z,13.53
2019-02-15T00:39:08.112Z,13.13
2019-02-15T00:41:37.089Z,13.28
2019-02-15T00:44:05.992Z,12.35
2019-02-15T00:46:52.068Z,12.65
2019-02-15T00:49:26.737Z,15.03
2019-02-15T00:52:14.165Z,12.60
2019-02-15T00:54:52.095Z,14.47
2019-02-15T00:57:31.828Z,12.73
2019-02-15T01:00:09.729Z,12.78
2019-02-15T01:02:50.699Z,12.60
2019-02-15T01:05:36.676Z,14.15
2019-02-15T01:08:26.763Z,14.40
2019-02-15T01:11:23.180Z,13.85
2019-02-15T01:13:53.039Z,13.60
2019-02-15T01:16:21.745Z,12.77
2019-02-15T01:18:50.165Z,12.88
2019-02-15T01:21:18.816Z,12.90
2019-02-15T01:23:47.596Z,14.20
2019-02-15T01:26:32.140Z,13.90
2019-02-15T01:29:21.333Z,14.90
2019-02-15T01:32:08.059Z,13.70
2019-02-15T01:34:42.741Z,15.05
2019-02-15T01:37:30.156Z,12.85
2019-02-15T01:40:32.974Z,12.43
2019-02-15T01:43:20.335Z,11.80
2019-02-15T01:46:02.132Z,14.25
2019-02-15T01:48:30.619Z,14.45
2019-02-15T01:50:59.033Z,11.57
2019-02-15T01:53:27.209Z,13.88
2019-02-15T01:55:55.368Z,11.43
2019-02-15T01:58:23.861Z,11.57
2019-02-15T02:00:52.409Z,12.97
2019-02-15T02:03:21.297Z,13.60
2019-02-15T02:05:50.252Z,12.88
2019-02-15T02:08:24.753Z,11.97
2019-02-15T02:10:53.355Z,12.88
2019-02-15T02:13:21.534Z,12.60
2019-02-15T02:15:49.952Z,13.15
2019-02-15T02:18:18.476Z,11.55
2019-02-15T02:20:47.037Z,12.90
2019-02-15T02:23:15.496Z,13.45
2019-02-15T02:25:44.024Z,12.98
2019-02-15T02:28:12.110Z,11.60
2019-02-15T02:30:40.683Z,12.23
2019-02-15T02:33:09.981Z,12.65
2019-02-15T02:35:38.675Z,14.03
2019-02-15T02:38:08.317Z,12.98
2019-02-15T02:40:36.463Z,13.70
2019-02-15T02:43:04.605Z,12.30
2019-02-15T02:45:33.256Z,12.95
2019-02-15T02:48:01.495Z,14.55
2019-02-15T02:50:30.071Z,14.60
2019-02-15T02:52:58.558Z,13.85
2019-02-15T02:55:26.733Z,14.30
2019-02-15T02:57:54.941Z,13.00
2019-02-15T03:00:32.968Z,14.13
2019-02-15T03:02:53.294Z,13.80
2019-02-15T03:05:21.782Z,13.00
2019-02-15T03:07:50.633Z,13.87
2019-02-15T03:10:20.675Z,12.90
2019-02-15T03:12:49.272Z,13.22
2019-02-15T03:15:18.120Z,13.18
2019-02-15T03:17:46.627Z,13.60
2019-02-15T03:20:15.604Z,15.78
2019-02-15T03:22:44.276Z,13.48
2019-02-15T03:25:12.806Z,12.53
2019-02-15T03:27:40.997Z,13.78
2019-02-15T03:30:09.858Z,13.10
2019-02-15T03:32:38.490Z,12.60
2019-02-15T03:35:07.395Z,13.58
2019-02-15T03:38:00.747Z,15.08
2019-02-15T03:40:42.260Z,14.30
2019-02-15T03:43:10.957Z,13.35
2019-02-15T03:45:40.797Z,16.25
2019-02-15T03:48:08.915Z,14.15
2019-02-15T03:50:37.002Z,12.40
2019-02-15T03:53:05.570Z,14.10
2019-02-15T03:55:34.164Z,12.30
2019-02-15T03:58:03.033Z,14.20
2019-02-15T04:00:31.531Z,15.00
2019-02-15T04:02:59.975Z,13.15
2019-02-15T04:05:28.639Z,13.78
2019-02-15T04:07:56.924Z,12.63
2019-02-15T04:10:25.108Z,15.30
2019-02-15T04:12:53.693Z,14.70
2019-02-15T04:15:22.347Z,15.38
2019-02-15T04:17:50.453Z,15.28
2019-02-15T04:20:18.743Z,13.65
2019-02-15T04:22:47.006Z,17.65
2019-02-15T04:25:15.484Z,14.68
2019-02-15T04:27:44.050Z,14.38
2019-02-15T04:30:12.155Z,14.93
2019-02-15T04:32:40.865Z,15.68
2019-02-15T04:35:09.285Z,14.90
2019-02-15T04:37:38.572Z,16.65
2019-02-15T04:40:07.312Z,15.28
2019-02-15T04:42:35.485Z,17.90
2019-02-15T04:45:04.436Z,13.05
2019-02-15T04:47:33.195Z,15.30
2019-02-15T04:50:02.377Z,15.32
2019-02-15T04:52:30.449Z,13.83
2019-02-15T04:55:00.411Z,15.32
2019-02-15T04:57:28.912Z,14.93
2019-02-15T04:59:57.892Z,14.90
2019-02-15T05:02:27.220Z,14.07
2019-02-15T05:04:55.283Z,13.43
2019-02-15T05:07:23.732Z,15.00
2019-02-15T05:09:51.849Z,16.02
2019-02-15T05:12:20.855Z,17.60
2019-02-15T05:14:53.062Z,14.13
2019-02-15T05:17:18.675Z,16.07
2019-02-15T05:19:47.270Z,16.82
2019-02-15T05:22:16.167Z,16.25
2019-02-15T05:24:44.377Z,15.50
2019-02-15T05:27:13.249Z,14.85
2019-02-15T05:29:42.140Z,18.15
2019-02-15T05:32:10.639Z,16.02
2019-02-15T05:34:39.133Z,16.25
2019-02-15T05:37:07.559Z,17.10
2019-02-15T05:39:36.185Z,18.75
2019-02-15T05:42:04.199Z,16.10
2019-02-15T05:44:32.837Z,16.42
2019-02-15T05:47:01.397Z,18.47
2019-02-15T05:49:29.861Z,19.10
2019-02-15T05:51:58.497Z,16.97
2019-02-15T05:54:27.244Z,17.42
2019-02-15T05:56:55.744Z,17.90
2019-02-15T05:59:24.337Z,17.70
2019-02-15T06:01:52.869Z,18.15
2019-02-15T06:04:21.108Z,15.58
2019-02-15T06:06:50.225Z,18.40
2019-02-15T06:09:19.152Z,19.15
2019-02-15T06:11:47.585Z,17.07
2019-02-15T06:14:15.754Z,15.93
2019-02-15T06:16:44.346Z,18.67
2019-02-15T06:19:12.989Z,17.92
2019-02-15T06:21:41.183Z,16.95
2019-02-15T06:24:09.242Z,17.60
2019-02-15T06:26:37.379Z,17.17
2019-02-15T06:29:05.509Z,18.98
2019-02-15T06:31:33.580Z,18.50
2019-02-15T06:34:01.770Z,19.25
2019-02-15T06:36:34.270Z,18.67
2019-02-15T06:39:02.649Z,18.23
2019-02-15T06:41:31.055Z,17.75
2019-02-15T06:43:59.166Z,18.70
2019-02-15T06:46:27.974Z,19.93
2019-02-15T06:48:56.483Z,17.80
2019-02-15T06:51:25.184Z,20.88
2019-02-15T06:53:53.666Z,20.70
2019-02-15T06:56:21.824Z,20.17
2019-02-15T06:59:15.093Z,20.57
2019-02-15T07:01:49.056Z,20.77
2019-02-15T07:04:22.707Z,17.20
2019-02-15T07:06:50.929Z,18.20
2019-02-15T07:09:19.129Z,18.80
2019-02-15T07:11:48.105Z,20.60
2019-02-15T07:14:16.775Z,17.90
2019-02-15T07:16:45.015Z,18.00
2019-02-15T07:19:13.461Z,20.62
2019-02-15T07:21:41.503Z,21.12
2019-02-15T07:24:10.102Z,19.65
2019-02-15T07:26:38.684Z,23.70
2019-02-15T07:29:07.572Z,17.62
2019-02-15T07:31:35.953Z,20.15
2019-02-15T07:34:04.139Z,18.73
2019-02-15T07:36:32.731Z,34.60
2019-02-15T07:39:01.259Z,22.93
2019-02-15T07:41:30.022Z,18.65
2019-02-15T07:43:58.436Z,24.18
2019-02-15T07:46:27.851Z,16.32
2019-02-15T07:48:56.034Z,14.58
2019-02-15T07:51:26.638Z,15.32
2019-02-15T07:53:55.175Z,15.45
2019-02-15T07:56:23.569Z,14.40
2019-02-15T07:58:51.727Z,14.47
2019-02-15T08:01:20.179Z,17.02
2019-02-15T08:03:48.307Z,21.23
2019-02-15T08:06:16.719Z,18.95
2019-02-15T08:08:45.416Z,16.77
2019-02-15T08:11:13.565Z,14.20
2019-02-15T08:13:41.767Z,11.70
2019-02-15T08:16:10.534Z,14.80
2019-02-15T08:18:39.213Z,11.38
2019-02-15T08:21:07.277Z,15.35
2019-02-15T08:23:36.553Z,15.30
2019-02-15T08:26:04.618Z,12.63
2019-02-15T08:28:33.464Z,15.08
2019-02-15T08:31:01.933Z,14.73
2019-02-15T08:33:29.964Z,24.27
2019-02-15T08:35:58.441Z,22.55
2019-02-15T08:38:27.597Z,20.15
2019-02-15T08:40:55.818Z,26.73
2019-02-15T08:43:24.169Z,27.45
2019-02-15T08:46:00.385Z,17.15
2019-02-15T08:48:22.506Z,32.10
2019-02-15T08:50:50.567Z,17.37
2019-02-15T08:53:19.020Z,19.27
2019-02-15T08:55:47.070Z,19.37
2019-02-15T08:58:15.749Z,14.47
2019-02-15T09:00:44.535Z,22.90
2019-02-15T09:03:12.596Z,22.40
2019-02-15T09:05:40.652Z,17.30
2019-02-15T09:08:09.158Z,12.43
2019-02-15T09:10:37.208Z,11.83
2019-02-15T09:13:05.309Z,12.10
2019-02-15T09:15:33.379Z,10.60
2019-02-15T09:18:01.763Z,10.40
2019-02-15T09:20:30.448Z,12.10
2019-02-15T09:22:58.479Z,10.40
2019-02-15T09:25:26.889Z,12.63
2019-02-15T09:28:13.973Z,12.07
2019-02-15T09:30:42.972Z,11.38
2019-02-15T09:33:11.689Z,10.65
2019-02-15T09:35:40.064Z,9.40
2019-02-15T09:38:08.497Z,11.05
2019-02-15T09:40:36.832Z,12.43
2019-02-15T09:43:11.277Z,11.20
2019-02-15T09:45:45.965Z,9.90
2019-02-15T09:48:19.477Z,12.33
2019-02-15T09:50:55.943Z,10.30
2019-02-15T09:53:24.486Z,9.85
2019-02-15T09:55:59.686Z,9.35
2019-02-15T09:58:39.622Z,9.55
2019-02-15T10:01:18.446Z,10.20
2019-02-15T10:04:01.525Z,12.80
2019-02-15T10:06:38.988Z,11.93
2019-02-15T10:09:22.187Z,11.90
2019-02-15T10:12:00.732Z,10.00
2019-02-15T10:14:40.062Z,10.65
2019-02-15T10:17:18.337Z,10.10
2019-02-15T10:20:09.539Z,12.10
2019-02-15T10:22:43.558Z,11.65
2019-02-15T10:25:22.638Z,10.60
2019-02-15T10:28:00.084Z,9.30
2019-02-15T10:30:39.864Z,10.28
2019-02-15T10:33:13.806Z,8.70
2019-02-15T10:35:51.489Z,8.90
2019-02-15T10:38:31.194Z,9.60
2019-02-15T10:41:06.002Z,8.95
2019-02-15T10:43:37.454Z,9.83
2019-02-15T10:46:15.666Z,9.65
2019-02-15T10:48:56.901Z,9.10
2019-02-15T10:51:37.037Z,8.78
2019-02-15T10:54:18.134Z,14.18
2019-02-15T10:56:56.983Z,8.78
2019-02-15T10:59:35.254Z,10.40
2019-02-15T11:02:11.090Z,10.48
2019-02-15T11:04:49.429Z,9.60
2019-02-15T11:07:23.002Z,13.83
2019-02-15T11:09:54.945Z,9.40
2019-02-15T11:12:39.602Z,8.53
2019-02-15T11:15:21.200Z,10.25
2019-02-15T11:17:58.679Z,8.90
2019-02-15T11:20:37.388Z,8.13
2019-02-15T11:23:05.736Z,8.65
2019-02-15T11:25:38.023Z,7.72
2019-02-15T11:28:12.945Z,10.18
2019-02-15T11:30:53.310Z,7.78
2019-02-15T11:33:30.964Z,6.92
2019-02-15T11:36:04.433Z,7.37
2019-02-15T11:38:38.146Z,8.10
2019-02-15T11:41:11.799Z,7.62
2019-02-15T11:43:44.393Z,7.17
2019-02-15T11:46:13.101Z,7.20
2019-02-15T11:48:41.431Z,7.03
2019-02-15T11:51:10.033Z,6.92
2019-02-15T11:53:38.519Z,6.05
2019-02-15T11:56:07.108Z,8.63
2019-02-15T11:58:35.193Z,7.50
2019-02-15T12:01:05.441Z,9.23
2019-02-15T12:03:33.813Z,6.80
2019-02-15T12:06:03.859Z,7.10
2019-02-15T12:08:32.417Z,5.67
2019-02-15T12:11:00.945Z,5.80
2019-02-15T12:13:30.053Z,7.97
2019-02-15T12:15:59.443Z,4.90
2019-02-15T12:18:28.128Z,4.65
2019-02-15T12:20:57.009Z,6.03
2019-02-15T12:23:28.566Z,4.70
2019-02-15T12:26:00.035Z,4.92
2019-02-15T12:28:30.819Z,4.28
2019-02-15T12:31:01.874Z,4.20
2019-02-15T12:33:31.748Z,4.65
2019-02-15T12:36:00.954Z,4.63
2019-02-15T12:38:29.297Z,5.67
2019-02-15T12:40:58.009Z,4.30
2019-02-15T12:43:26.966Z,3.70
2019-02-15T12:45:55.821Z,3.80
2019-02-15T12:48:24.249Z,5.30
2019-02-15T12:50:52.753Z,4.00
2019-02-15T12:53:21.564Z,4.23
2019-02-15T12:55:49.629Z,4.80
2019-02-15T12:58:18.000Z,4.80
2019-02-15T13:00:46.950Z,3.65
2019-02-15T13:03:15.795Z,7.30
2019-02-15T13:05:44.857Z,4.25
2019-02-15T13:08:14.090Z,4.40
2019-02-15T13:10:43.269Z,5.40
2019-02-15T13:13:11.567Z,4.83
2019-02-15T13:15:39.723Z,4.72
2019-02-15T13:18:07.918Z,4.87
2019-02-15T13:20:36.745Z,4.37
2019-02-15T13:23:05.004Z,4.90
2019-02-15T13:25:36.708Z,4.28
2019-02-15T13:28:03.349Z,18.40
2019-02-15T13:30:31.384Z,10.50
2019-02-15T13:32:59.648Z,9.88
2019-02-15T13:35:27.724Z,5.87
2019-02-15T13:37:55.749Z,4.70
2019-02-15T13:40:24.089Z,4.90
2019-02-15T13:42:52.669Z,4.75
2019-02-15T13:45:21.023Z,4.10
2019-02-15T13:47:49.076Z,6.90
2019-02-15T13:50:19.062Z,6.45
2019-02-15T13:52:49.718Z,5.90
2019-02-15T13:55:17.769Z,6.00
2019-02-15T13:57:46.428Z,5.37
2019-02-15T14:00:14.803Z,4.65
2019-02-15T14:02:42.855Z,6.05
2019-02-15T14:05:11.788Z,5.50
2019-02-15T14:07:40.652Z,5.30
2019-02-15T14:10:09.902Z,5.87
2019-02-15T14:12:38.316Z,4.17
2019-02-15T14:15:06.494Z,4.83
2019-02-15T14:17:43.844Z,5.55
2019-02-15T14:20:05.178Z,6.22
2019-02-15T14:22:33.908Z,5.28
2019-02-15T14:25:02.283Z,4.83
2019-02-15T14:27:30.311Z,4.80
2019-02-15T14:29:58.670Z,5.40
2019-02-15T14:32:26.728Z,5.58
2019-02-15T14:34:54.793Z,5.30
2019-02-15T14:37:22.890Z,7.12
2019-02-15T14:39:58.994Z,5.15
2019-02-15T14:42:27.306Z,5.30
2019-02-15T14:44:55.875Z,4.40
2019-02-15T14:47:24.244Z,5.90
2019-02-15T14:49:52.939Z,5.25
2019-02-15T14:52:20.990Z,5.08
2019-02-15T14:54:49.308Z,4.70
2019-02-15T14:57:17.667Z,5.20
2019-02-15T14:59:46.293Z,5.15
2019-02-15T15:02:14.709Z,5.35
2019-02-15T15:04:42.833Z,4.83
2019-02-15T15:07:11.193Z,12.60
2019-02-15T15:09:39.228Z,4.67
2019-02-15T15:12:07.643Z,5.03
2019-02-15T15:14:35.740Z,5.00
2019-02-15T15:17:03.817Z,5.20
2019-02-15T15:19:32.183Z,4.90
2019-02-15T15:22:00.517Z,9.23
2019-02-15T15:24:28.921Z,6.25
2019-02-15T15:26:57.301Z,5.47
2019-02-15T15:29:25.779Z,7.40
2019-02-15T15:31:54.133Z,4.95
2019-02-15T15:34:22.186Z,9.80
2019-02-15T15:36:50.554Z,11.90
2019-02-15T15:39:18.619Z,9.20
2019-02-15T15:41:47.252Z,9.20
2019-02-15T15:44:15.696Z,12.13
2019-02-15T15:46:44.088Z,9.47
2019-02-15T15:49:12.437Z,9.85
2019-02-15T15:51:40.486Z,8.68
2019-02-15T15:54:08.860Z,10.30
2019-02-15T15:56:37.308Z,10.08
2019-02-15T15:59:06.036Z,7.83
2019-02-15T16:01:34.089Z,7.45
2019-02-15T16:04:02.136Z,8.78
2019-02-15T16:06:30.167Z,9.53
2019-02-15T16:08:58.327Z,9.03
2019-02-15T16:11:26.408Z,10.43
2019-02-15T16:13:54.441Z,9.00
2019-02-15T16:16:22.817Z,9.20
2019-02-15T16:18:51.203Z,7.58
2019-02-15T16:21:21.935Z,7.15
2019-02-15T16:23:50.557Z,7.05
2019-02-15T16:26:18.619Z,6.83
2019-02-15T16:28:46.989Z,6.55
2019-02-15T16:31:15.291Z,8.25
2019-02-15T16:33:44.059Z,6.20
2019-02-15T16:36:12.442Z,6.60
2019-02-15T16:38:41.116Z,7.50
2019-02-15T16:41:09.161Z,7.67
2019-02-15T16:43:37.250Z,6.75
2019-02-15T16:46:05.562Z,8.35
2019-02-15T16:48:41.877Z,10.65
2019-02-15T16:51:03.475Z,8.50
2019-02-15T16:53:31.821Z,9.35
2019-02-15T16:56:00.845Z,8.48
2019-02-15T16:58:29.282Z,7.83
2019-02-15T17:00:57.341Z,7.30
2019-02-15T17:03:25.985Z,9.55
2019-02-15T17:05:54.508Z,9.83
2019-02-15T17:08:22.630Z,9.70
2019-02-15T17:12:08.900Z,8.20
2019-02-15T17:14:37.608Z,7.78
2019-02-15T17:17:05.634Z,8.00
2019-02-15T17:19:34.025Z,9.33
2019-02-15T17:22:02.133Z,8.40
2019-02-15T17:24:30.398Z,11.18
2019-02-15T17:26:58.459Z,7.72
2019-02-15T17:29:26.505Z,8.35
2019-02-15T17:31:54.699Z,9.55
2019-02-15T17:34:22.757Z,8.80
2019-02-15T17:36:51.434Z,8.00
2019-02-15T17:39:19.538Z,8.50
2019-02-15T17:41:48.065Z,10.10
2019-02-15T17:44:16.505Z,8.38
2019-02-15T17:46:44.927Z,7.83
2019-02-15T17:49:13.313Z,7.12
2019-02-15T17:51:41.636Z,10.85
2019-02-15T17:54:10.425Z,7.90
2019-02-15T17:56:38.429Z,8.40
2019-02-15T17:59:06.483Z,10.18
2019-02-15T18:01:35.176Z,8.98
2019-02-15T18:04:03.277Z,8.40
2019-02-15T18:06:31.742Z,11.40
2019-02-15T18:08:59.842Z,7.20
2019-02-15T18:11:28.268Z,9.80
2019-02-15T18:13:56.301Z,13.48
2019-02-15T18:16:24.807Z,13.68
2019-02-15T18:18:53.201Z,13.25
2019-02-15T18:21:21.574Z,10.68
2019-02-15T18:23:50.293Z,9.80
2019-02-15T18:26:18.348Z,8.90
2019-02-15T18:28:47.125Z,8.27
2019-02-15T18:31:16.474Z,9.10
2019-02-15T18:33:45.004Z,8.80
2019-02-15T18:36:13.080Z,8.85
2019-02-15T18:38:41.160Z,8.90
2019-02-15T18:41:13.504Z,8.78
2019-02-15T18:43:39.625Z,10.50
2019-02-15T18:46:09.542Z,12.30
2019-02-15T18:48:37.683Z,10.15
2019-02-15T18:51:05.889Z,10.65
2019-02-15T18:53:34.023Z,8.83
2019-02-15T18:56:02.135Z,9.37
2019-02-15T18:58:30.540Z,8.27
2019-02-15T19:00:58.585Z,7.70
2019-02-15T19:03:27.422Z,7.28
2019-02-15T19:05:56.348Z,8.50
2019-02-15T19:08:25.085Z,6.80
2019-02-15T19:10:53.428Z,7.12
2019-02-15T19:13:21.825Z,7.10
2019-02-15T19:15:49.897Z,7.40
2019-02-15T19:18:17.913Z,7.78
2019-02-15T19:20:46.007Z,7.37
2019-02-15T19:23:14.057Z,9.37
2019-02-15T19:25:42.104Z,11.23
2019-02-15T19:28:10.196Z,7.57
2019-02-15T19:30:38.228Z,6.00
2019-02-15T19:33:06.264Z,7.13
2019-02-15T19:35:34.377Z,5.85
2019-02-15T19:38:02.393Z,6.20
2019-02-15T19:40:31.155Z,7.62
2019-02-15T19:42:59.522Z,5.80
2019-02-15T19:45:27.983Z,6.28
2019-02-15T19:47:56.028Z,6.67
2019-02-15T19:50:24.863Z,8.15
2019-02-15T19:52:53.559Z,6.10
2019-02-15T19:55:21.588Z,7.70
2019-02-15T19:57:49.989Z,10.43
2019-02-15T20:00:18.210Z,8.53
2019-02-15T20:02:46.561Z,6.67
2019-02-15T20:05:15.243Z,7.17
2019-02-15T20:07:43.624Z,6.05
2019-02-15T20:10:12.847Z,8.58
2019-02-15T20:12:40.941Z,8.35
2019-02-15T20:15:10.019Z,5.90
2019-02-15T20:17:38.381Z,5.90
2019-02-15T20:20:07.259Z,6.17
2019-02-15T20:22:35.949Z,6.20
2019-02-15T20:25:03.984Z,5.87
2019-02-15T20:27:32.357Z,6.40
2019-02-15T20:30:00.395Z,6.67
2019-02-15T20:32:29.060Z,8.80
2019-02-15T20:34:57.123Z,6.45
2019-02-15T20:37:25.192Z,7.55
2019-02-15T20:39:53.892Z,5.55
2019-02-15T20:42:22.572Z,7.12
2019-02-15T20:44:50.587Z,8.18
2019-02-15T20:47:18.665Z,8.58
2019-02-15T20:49:47.299Z,6.00
2019-02-15T20:52:15.916Z,7.40
2019-02-15T20:54:44.697Z,8.30
2019-02-15T20:57:13.087Z,5.47
2019-02-15T20:59:41.166Z,8.10
2019-02-15T21:02:09.506Z,7.85
2019-02-15T21:04:37.878Z,10.58
2019-02-15T21:07:05.936Z,11.60
2019-02-15T21:09:34.325Z,6.12
2019-02-15T21:12:02.378Z,8.68
2019-02-15T21:14:30.898Z,8.10
2019-02-15T21:16:58.954Z,8.30
2019-02-15T21:19:27.566Z,6.80
2019-02-15T21:21:55.923Z,8.48
2019-02-15T21:24:23.996Z,6.05
2019-02-15T21:26:52.004Z,6.87
2019-02-15T21:29:20.078Z,6.20
2019-02-15T21:31:48.730Z,6.62
2019-02-15T21:34:17.102Z,6.55
2019-02-15T21:36:45.185Z,7.22
2019-02-15T21:39:13.563Z,6.47
2019-02-15T21:41:41.949Z,6.65
2019-02-15T21:44:10.341Z,6.47
2019-02-15T21:46:39.001Z,8.83
2019-02-15T21:49:07.044Z,6.97
2019-02-15T21:51:35.116Z,6.40
2019-02-15T21:54:03.179Z,6.87
2019-02-15T21:56:31.209Z,5.90
2019-02-15T21:58:59.539Z,9.75
2019-02-15T22:01:27.585Z,5.62
2019-02-15T22:03:55.633Z,8.90
2019-02-15T22:06:24.296Z,9.50
2019-02-15T22:08:52.601Z,7.80
2019-02-15T22:11:21.461Z,7.42
2019-02-15T22:13:49.828Z,9.40
2019-02-15T22:16:18.634Z,6.45
2019-02-15T22:18:46.632Z,7.00
2019-02-15T22:21:14.691Z,7.50
2019-02-15T22:23:43.096Z,6.90
2019-02-15T22:26:11.741Z,7.05
2019-02-15T22:28:40.120Z,7.17
2019-02-15T22:31:08.191Z,6.95
2019-02-15T22:33:36.240Z,6.67
2019-02-15T22:36:04.640Z,7.45
2019-02-15T22:38:32.661Z,6.78
2019-02-15T22:41:09.804Z,7.20
2019-02-15T22:43:38.190Z,7.35
2019-02-15T22:46:06.255Z,7.62
2019-02-15T22:48:34.376Z,7.40
2019-02-15T22:51:03.004Z,8.95
2019-02-15T22:53:31.106Z,7.97
2019-02-15T22:55:59.443Z,7.58
2019-02-15T22:58:27.876Z,7.00
2019-02-15T23:01:00.971Z,6.40
2019-02-15T23:03:29.307Z,6.22
2019-02-15T23:05:57.770Z,7.53
2019-02-15T23:08:26.215Z,6.20
2019-02-15T23:10:55.045Z,7.00
2019-02-15T23:13:23.448Z,8.55
2019-02-15T23:15:51.576Z,6.55
2019-02-15T23:18:20.546Z,6.83
2019-02-15T23:20:49.292Z,7.35
2019-02-15T23:23:17.677Z,8.70
2019-02-15T23:25:45.692Z,6.80
2019-02-15T23:28:14.327Z,6.80
2019-02-15T23:30:42.349Z,7.20
2019-02-15T23:33:10.432Z,7.30
2019-02-15T23:35:38.731Z,6.90
2019-02-15T23:38:06.832Z,9.28
2019-02-15T23:40:35.235Z,6.87
2019-02-15T23:43:03.297Z,7.17
2019-02-15T23:45:31.548Z,8.80
2019-02-15T23:47:59.488Z,9.73
2019-02-15T23:50:27.467Z,8.50
2019-02-15T23:52:56.476Z,6.80
2019-02-15T23:55:24.478Z,6.17
2019-02-15T23:57:52.721Z,7.40
